sensor_id;sensor_type;location;lat;lon;timestamp;temperature;humidity
46231;DHT22;31949;51.404;-0.038;2023-09-30T00:02:05;14.30;99.90
46231;DHT22;31949;51.404;-0.038;2023-09-30T00:04:32;14.30;99.90
46231;DHT22;31949;51.404;-0.038;2023-09-30T00:07:00;14.30;99.90
46231;DHT22;31949;51.404;-0.038;2023-09-30T00:09:28;14.30;99.90
46231;DHT22;31949;51.404;-0.038;2023-09-30T00:11:55;14.30;99.90
46231;DHT22;31949;51.404;-0.038;2023-09-30T00:14:22;14.30;99.90
46231;DHT22;31949;51.404;-0.038;2023-09-30T00:16:50;14.20;99.90
46231;DHT22;31949;51.404;-0.038;2023-09-30T00:19:18;14.30;99.90
46231;DHT22;31949;51.404;-0.038;2023-09-30T00:21:45;14.20;99.90
46231;DHT22;31949;51.404;-0.038;2023-09-30T00:24:12;14.30;99.90
46231;DHT22;31949;51.404;-0.038;2023-09-30T00:26:39;14.20;99.90
46231;DHT22;31949;51.404;-0.038;2023-09-30T00:29:07;14.20;99.90
46231;DHT22;31949;51.404;-0.038;2023-09-30T00:31:34;14.30;99.90
46231;DHT22;31949;51.404;-0.038;2023-09-30T00:34:01;14.20;99.90
46231;DHT22;31949;51.404;-0.038;2023-09-30T00:36:28;14.20;99.90
46231;DHT22;31949;51.404;-0.038;2023-09-30T00:38:56;14.30;99.90
46231;DHT22;31949;51.404;-0.038;2023-09-30T00:41:24;14.20;99.90
46231;DHT22;31949;51.404;-0.038;2023-09-30T00:43:51;14.20;99.90
46231;DHT22;31949;51.404;-0.038;2023-09-30T00:46:45;14.30;99.90
46231;DHT22;31949;51.404;-0.038;2023-09-30T00:49:14;14.20;99.90
46231;DHT22;31949;51.404;-0.038;2023-09-30T00:51:41;14.20;99.90
46231;DHT22;31949;51.404;-0.038;2023-09-30T00:54:09;14.20;99.90
46231;DHT22;31949;51.404;-0.038;2023-09-30T00:56:43;14.20;99.90
46231;DHT22;31949;51.404;-0.038;2023-09-30T00:59:13;14.20;99.90
46231;DHT22;31949;51.404;-0.038;2023-09-30T01:01:42;14.20;99.90
46231;DHT22;31949;51.404;-0.038;2023-09-30T01:04:14;14.20;99.90
46231;DHT22;31949;51.404;-0.038;2023-09-30T01:06:42;14.20;99.90
46231;DHT22;31949;51.404;-0.038;2023-09-30T01:09:09;14.20;99.90
46231;DHT22;31949;51.404;-0.038;2023-09-30T01:11:37;14.20;99.90
46231;DHT22;31949;51.404;-0.038;2023-09-30T01:14:04;14.20;99.90
46231;DHT22;31949;51.404;-0.038;2023-09-30T01:16:31;14.20;99.90
46231;DHT22;31949;51.404;-0.038;2023-09-30T01:19:01;14.10;99.90
46231;DHT22;31949;51.404;-0.038;2023-09-30T01:21:33;14.10;99.90
46231;DHT22;31949;51.404;-0.038;2023-09-30T01:24:01;14.10;99.90
46231;DHT22;31949;51.404;-0.038;2023-09-30T01:26:29;14.10;99.90
46231;DHT22;31949;51.404;-0.038;2023-09-30T01:28:57;14.10;99.90
46231;DHT22;31949;51.404;-0.038;2023-09-30T01:31:24;14.10;99.90
46231;DHT22;31949;51.404;-0.038;2023-09-30T01:33:52;14.10;99.90
46231;DHT22;31949;51.404;-0.038;2023-09-30T01:36:22;14.10;99.90
46231;DHT22;31949;51.404;-0.038;2023-09-30T01:38:49;14.10;99.90
46231;DHT22;31949;51.404;-0.038;2023-09-30T01:41:16;14.10;99.90
46231;DHT22;31949;51.404;-0.038;2023-09-30T01:43:43;14.10;99.90
46231;DHT22;31949;51.404;-0.038;2023-09-30T01:46:10;14.10;99.90
46231;DHT22;31949;51.404;-0.038;2023-09-30T01:48:39;14.00;99.90
46231;DHT22;31949;51.404;-0.038;2023-09-30T01:51:06;14.00;99.90
46231;DHT22;31949;51.404;-0.038;2023-09-30T01:53:33;14.00;99.90
46231;DHT22;31949;51.404;-0.038;2023-09-30T01:56:01;14.00;99.90
46231;DHT22;31949;51.404;-0.038;2023-09-30T01:58:29;14.00;99.90
46231;DHT22;31949;51.404;-0.038;2023-09-30T02:01:02;14.00;99.90
46231;DHT22;31949;51.404;-0.038;2023-09-30T02:03:30;13.90;99.90
46231;DHT22;31949;51.404;-0.038;2023-09-30T02:05:58;14.00;99.90
46231;DHT22;31949;51.404;-0.038;2023-09-30T02:08:25;13.90;99.90
46231;DHT22;31949;51.404;-0.038;2023-09-30T02:10:52;14.00;99.90
46231;DHT22;31949;51.404;-0.038;2023-09-30T02:13:20;14.00;99.90
46231;DHT22;31949;51.404;-0.038;2023-09-30T02:15:47;14.00;99.90
46231;DHT22;31949;51.404;-0.038;2023-09-30T02:18:15;14.00;99.90
46231;DHT22;31949;51.404;-0.038;2023-09-30T02:20:42;13.90;99.90
46231;DHT22;31949;51.404;-0.038;2023-09-30T02:23:12;14.00;99.90
46231;DHT22;31949;51.404;-0.038;2023-09-30T02:25:40;14.00;99.90
46231;DHT22;31949;51.404;-0.038;2023-09-30T02:28:07;14.00;99.90
46231;DHT22;31949;51.404;-0.038;2023-09-30T02:30:34;14.00;99.90
46231;DHT22;31949;51.404;-0.038;2023-09-30T02:33:03;14.00;99.90
46231;DHT22;31949;51.404;-0.038;2023-09-30T02:35:31;14.00;99.90
46231;DHT22;31949;51.404;-0.038;2023-09-30T02:37:59;13.90;99.90
46231;DHT22;31949;51.404;-0.038;2023-09-30T02:40:27;13.90;99.90
46231;DHT22;31949;51.404;-0.038;2023-09-30T02:42:55;13.90;99.90
46231;DHT22;31949;51.404;-0.038;2023-09-30T02:45:24;13.90;99.90
46231;DHT22;31949;51.404;-0.038;2023-09-30T02:47:51;13.90;99.90
46231;DHT22;31949;51.404;-0.038;2023-09-30T02:50:19;13.90;99.90
46231;DHT22;31949;51.404;-0.038;2023-09-30T02:52:48;13.90;99.90
46231;DHT22;31949;51.404;-0.038;2023-09-30T02:55:16;13.90;99.90
46231;DHT22;31949;51.404;-0.038;2023-09-30T02:57:44;13.80;99.90
46231;DHT22;31949;51.404;-0.038;2023-09-30T03:00:14;13.80;99.90
46231;DHT22;31949;51.404;-0.038;2023-09-30T03:02:52;13.80;99.90
46231;DHT22;31949;51.404;-0.038;2023-09-30T03:05:21;13.70;99.90
46231;DHT22;31949;51.404;-0.038;2023-09-30T03:07:49;13.70;99.90
46231;DHT22;31949;51.404;-0.038;2023-09-30T03:10:19;13.70;99.90
46231;DHT22;31949;51.404;-0.038;2023-09-30T03:12:51;13.70;99.90
46231;DHT22;31949;51.404;-0.038;2023-09-30T03:15:19;13.70;99.90
46231;DHT22;31949;51.404;-0.038;2023-09-30T03:17:46;13.70;99.90
46231;DHT22;31949;51.404;-0.038;2023-09-30T03:20:18;13.70;99.90
46231;DHT22;31949;51.404;-0.038;2023-09-30T03:22:47;13.60;99.90
46231;DHT22;31949;51.404;-0.038;2023-09-30T03:25:18;13.60;99.90
46231;DHT22;31949;51.404;-0.038;2023-09-30T03:27:46;13.60;99.90
46231;DHT22;31949;51.404;-0.038;2023-09-30T03:30:15;13.60;99.90
46231;DHT22;31949;51.404;-0.038;2023-09-30T03:32:43;13.50;99.90
46231;DHT22;31949;51.404;-0.038;2023-09-30T03:35:11;13.50;99.90
46231;DHT22;31949;51.404;-0.038;2023-09-30T03:37:45;13.60;99.90
46231;DHT22;31949;51.404;-0.038;2023-09-30T03:40:14;13.50;99.90
46231;DHT22;31949;51.404;-0.038;2023-09-30T03:42:47;13.50;99.90
46231;DHT22;31949;51.404;-0.038;2023-09-30T03:45:17;13.50;99.90
46231;DHT22;31949;51.404;-0.038;2023-09-30T03:47:45;13.50;99.90
46231;DHT22;31949;51.404;-0.038;2023-09-30T03:50:16;13.40;99.90
46231;DHT22;31949;51.404;-0.038;2023-09-30T03:52:44;13.40;99.90
46231;DHT22;31949;51.404;-0.038;2023-09-30T03:55:15;13.40;99.90
46231;DHT22;31949;51.404;-0.038;2023-09-30T03:57:49;13.40;99.90
46231;DHT22;31949;51.404;-0.038;2023-09-30T04:00:18;13.30;99.90
46231;DHT22;31949;51.404;-0.038;2023-09-30T04:02:51;13.30;99.90
46231;DHT22;31949;51.404;-0.038;2023-09-30T04:05:23;13.30;99.90
46231;DHT22;31949;51.404;-0.038;2023-09-30T04:07:56;13.30;99.90
46231;DHT22;31949;51.404;-0.038;2023-09-30T04:10:23;13.20;99.90
46231;DHT22;31949;51.404;-0.038;2023-09-30T04:12:52;13.20;99.90
46231;DHT22;31949;51.404;-0.038;2023-09-30T04:15:19;13.20;99.90
46231;DHT22;31949;51.404;-0.038;2023-09-30T04:17:48;13.10;99.90
46231;DHT22;31949;51.404;-0.038;2023-09-30T04:20:16;13.10;99.90
46231;DHT22;31949;51.404;-0.038;2023-09-30T04:22:45;13.10;99.90
46231;DHT22;31949;51.404;-0.038;2023-09-30T04:25:17;13.10;99.90
46231;DHT22;31949;51.404;-0.038;2023-09-30T04:27:46;13.10;99.90
46231;DHT22;31949;51.404;-0.038;2023-09-30T04:30:17;13.00;99.90
46231;DHT22;31949;51.404;-0.038;2023-09-30T04:32:45;13.00;99.90
46231;DHT22;31949;51.404;-0.038;2023-09-30T04:35:12;13.00;99.90
46231;DHT22;31949;51.404;-0.038;2023-09-30T04:37:39;13.00;99.90
46231;DHT22;31949;51.404;-0.038;2023-09-30T04:40:08;13.00;99.90
46231;DHT22;31949;51.404;-0.038;2023-09-30T04:42:48;13.10;99.90
46231;DHT22;31949;51.404;-0.038;2023-09-30T04:45:16;13.10;99.90
46231;DHT22;31949;51.404;-0.038;2023-09-30T04:47:53;13.10;99.90
46231;DHT22;31949;51.404;-0.038;2023-09-30T04:50:23;13.10;99.90
46231;DHT22;31949;51.404;-0.038;2023-09-30T04:52:51;13.10;99.90
46231;DHT22;31949;51.404;-0.038;2023-09-30T04:55:19;13.10;99.90
46231;DHT22;31949;51.404;-0.038;2023-09-30T04:57:47;13.10;99.90
46231;DHT22;31949;51.404;-0.038;2023-09-30T05:00:17;13.10;99.90
46231;DHT22;31949;51.404;-0.038;2023-09-30T05:02:45;13.10;99.90
46231;DHT22;31949;51.404;-0.038;2023-09-30T05:05:13;13.00;99.90
46231;DHT22;31949;51.404;-0.038;2023-09-30T05:07:42;13.10;99.90
46231;DHT22;31949;51.404;-0.038;2023-09-30T05:10:10;13.10;99.90
46231;DHT22;31949;51.404;-0.038;2023-09-30T05:12:40;13.10;99.90
46231;DHT22;31949;51.404;-0.038;2023-09-30T05:15:15;13.10;99.90
46231;DHT22;31949;51.404;-0.038;2023-09-30T05:17:43;13.10;99.90
46231;DHT22;31949;51.404;-0.038;2023-09-30T05:20:11;13.10;99.90
46231;DHT22;31949;51.404;-0.038;2023-09-30T05:22:40;13.00;99.90
46231;DHT22;31949;51.404;-0.038;2023-09-30T05:25:14;13.10;99.90
46231;DHT22;31949;51.404;-0.038;2023-09-30T05:27:45;13.00;99.90
46231;DHT22;31949;51.404;-0.038;2023-09-30T05:30:15;13.10;99.90
46231;DHT22;31949;51.404;-0.038;2023-09-30T05:32:43;13.00;99.90
46231;DHT22;31949;51.404;-0.038;2023-09-30T05:35:13;13.00;99.90
46231;DHT22;31949;51.404;-0.038;2023-09-30T05:37:43;13.00;99.90
46231;DHT22;31949;51.404;-0.038;2023-09-30T05:40:12;13.00;99.90
46231;DHT22;31949;51.404;-0.038;2023-09-30T05:42:57;13.00;99.90
46231;DHT22;31949;51.404;-0.038;2023-09-30T05:45:27;13.00;99.90
46231;DHT22;31949;51.404;-0.038;2023-09-30T05:47:55;12.90;99.90
46231;DHT22;31949;51.404;-0.038;2023-09-30T05:50:24;12.90;99.90
46231;DHT22;31949;51.404;-0.038;2023-09-30T05:52:54;12.90;99.90
46231;DHT22;31949;51.404;-0.038;2023-09-30T05:55:23;12.90;99.90
46231;DHT22;31949;51.404;-0.038;2023-09-30T05:57:53;12.90;99.90
46231;DHT22;31949;51.404;-0.038;2023-09-30T06:00:21;12.80;99.90
46231;DHT22;31949;51.404;-0.038;2023-09-30T06:02:58;12.80;99.90
46231;DHT22;31949;51.404;-0.038;2023-09-30T06:05:27;12.80;99.90
46231;DHT22;31949;51.404;-0.038;2023-09-30T06:07:57;12.80;99.90
46231;DHT22;31949;51.404;-0.038;2023-09-30T06:10:24;12.80;99.90
46231;DHT22;31949;51.404;-0.038;2023-09-30T06:12:53;12.80;99.90
46231;DHT22;31949;51.404;-0.038;2023-09-30T06:15:25;12.80;99.90
46231;DHT22;31949;51.404;-0.038;2023-09-30T06:17:56;12.80;99.90
46231;DHT22;31949;51.404;-0.038;2023-09-30T06:20:24;12.80;99.90
46231;DHT22;31949;51.404;-0.038;2023-09-30T06:22:54;12.90;99.90
46231;DHT22;31949;51.404;-0.038;2023-09-30T06:25:22;12.90;99.90
46231;DHT22;31949;51.404;-0.038;2023-09-30T06:27:52;12.90;99.90
46231;DHT22;31949;51.404;-0.038;2023-09-30T06:30:19;12.90;99.90
46231;DHT22;31949;51.404;-0.038;2023-09-30T06:32:48;13.00;99.90
46231;DHT22;31949;51.404;-0.038;2023-09-30T06:35:16;13.00;99.90
46231;DHT22;31949;51.404;-0.038;2023-09-30T06:37:44;13.00;99.90
46231;DHT22;31949;51.404;-0.038;2023-09-30T06:40:12;13.00;99.90
46231;DHT22;31949;51.404;-0.038;2023-09-30T06:42:40;13.00;99.90
46231;DHT22;31949;51.404;-0.038;2023-09-30T06:45:10;13.10;99.90
46231;DHT22;31949;51.404;-0.038;2023-09-30T06:47:38;13.10;99.90
46231;DHT22;31949;51.404;-0.038;2023-09-30T06:50:11;13.10;99.90
46231;DHT22;31949;51.404;-0.038;2023-09-30T06:52:41;13.10;99.90
46231;DHT22;31949;51.404;-0.038;2023-09-30T06:55:09;13.20;99.90
46231;DHT22;31949;51.404;-0.038;2023-09-30T06:57:37;13.20;99.90
46231;DHT22;31949;51.404;-0.038;2023-09-30T07:00:12;13.20;99.90
46231;DHT22;31949;51.404;-0.038;2023-09-30T07:02:41;13.20;99.90
46231;DHT22;31949;51.404;-0.038;2023-09-30T07:05:14;13.20;99.90
46231;DHT22;31949;51.404;-0.038;2023-09-30T07:07:42;13.20;99.90
46231;DHT22;31949;51.404;-0.038;2023-09-30T07:10:13;13.30;99.90
46231;DHT22;31949;51.404;-0.038;2023-09-30T07:12:41;13.30;99.90
46231;DHT22;31949;51.404;-0.038;2023-09-30T07:15:09;13.30;99.90
46231;DHT22;31949;51.404;-0.038;2023-09-30T07:17:37;13.40;99.90
46231;DHT22;31949;51.404;-0.038;2023-09-30T07:20:05;13.50;99.90
46231;DHT22;31949;51.404;-0.038;2023-09-30T07:22:36;13.50;99.90
46231;DHT22;31949;51.404;-0.038;2023-09-30T07:25:21;13.60;99.90
46231;DHT22;31949;51.404;-0.038;2023-09-30T07:27:49;13.70;99.90
46231;DHT22;31949;51.404;-0.038;2023-09-30T07:30:16;13.70;99.90
46231;DHT22;31949;51.404;-0.038;2023-09-30T07:32:45;13.80;99.90
46231;DHT22;31949;51.404;-0.038;2023-09-30T07:35:14;13.90;99.90
46231;DHT22;31949;51.404;-0.038;2023-09-30T07:37:43;14.00;99.90
46231;DHT22;31949;51.404;-0.038;2023-09-30T07:40:11;14.00;99.90
46231;DHT22;31949;51.404;-0.038;2023-09-30T07:42:39;14.10;99.90
46231;DHT22;31949;51.404;-0.038;2023-09-30T07:45:07;14.10;99.90
46231;DHT22;31949;51.404;-0.038;2023-09-30T07:47:34;14.20;99.90
46231;DHT22;31949;51.404;-0.038;2023-09-30T07:50:02;14.20;99.90
46231;DHT22;31949;51.404;-0.038;2023-09-30T07:52:33;14.30;99.90
46231;DHT22;31949;51.404;-0.038;2023-09-30T07:55:00;14.30;99.90
46231;DHT22;31949;51.404;-0.038;2023-09-30T07:57:28;14.40;99.90
46231;DHT22;31949;51.404;-0.038;2023-09-30T07:59:55;14.50;99.90
46231;DHT22;31949;51.404;-0.038;2023-09-30T08:02:22;14.50;99.90
46231;DHT22;31949;51.404;-0.038;2023-09-30T08:04:51;14.60;99.90
46231;DHT22;31949;51.404;-0.038;2023-09-30T08:07:19;14.60;99.90
46231;DHT22;31949;51.404;-0.038;2023-09-30T08:09:47;14.60;99.90
46231;DHT22;31949;51.404;-0.038;2023-09-30T08:12:15;14.70;99.90
46231;DHT22;31949;51.404;-0.038;2023-09-30T08:14:42;14.80;99.90
46231;DHT22;31949;51.404;-0.038;2023-09-30T08:17:12;14.90;99.90
46231;DHT22;31949;51.404;-0.038;2023-09-30T08:19:39;15.00;99.90
46231;DHT22;31949;51.404;-0.038;2023-09-30T08:22:06;15.10;99.90
46231;DHT22;31949;51.404;-0.038;2023-09-30T08:24:34;15.20;99.90
46231;DHT22;31949;51.404;-0.038;2023-09-30T08:27:01;15.30;99.90
46231;DHT22;31949;51.404;-0.038;2023-09-30T08:29:28;15.30;99.90
46231;DHT22;31949;51.404;-0.038;2023-09-30T08:31:56;15.30;99.90
46231;DHT22;31949;51.404;-0.038;2023-09-30T08:34:23;15.30;99.90
46231;DHT22;31949;51.404;-0.038;2023-09-30T08:36:51;15.40;99.90
46231;DHT22;31949;51.404;-0.038;2023-09-30T08:39:18;15.50;99.90
46231;DHT22;31949;51.404;-0.038;2023-09-30T08:41:45;15.60;99.90
46231;DHT22;31949;51.404;-0.038;2023-09-30T08:44:13;15.60;99.90
46231;DHT22;31949;51.404;-0.038;2023-09-30T08:46:41;15.60;99.90
46231;DHT22;31949;51.404;-0.038;2023-09-30T08:49:09;15.80;99.90
46231;DHT22;31949;51.404;-0.038;2023-09-30T08:51:37;15.80;99.90
46231;DHT22;31949;51.404;-0.038;2023-09-30T08:54:06;15.80;99.90
46231;DHT22;31949;51.404;-0.038;2023-09-30T08:56:34;15.90;99.90
46231;DHT22;31949;51.404;-0.038;2023-09-30T08:59:02;16.00;99.90
46231;DHT22;31949;51.404;-0.038;2023-09-30T09:01:30;16.00;99.90
46231;DHT22;31949;51.404;-0.038;2023-09-30T09:03:58;16.10;99.90
46231;DHT22;31949;51.404;-0.038;2023-09-30T09:06:26;16.20;99.90
46231;DHT22;31949;51.404;-0.038;2023-09-30T09:08:54;16.30;99.90
46231;DHT22;31949;51.404;-0.038;2023-09-30T09:11:23;16.30;99.90
46231;DHT22;31949;51.404;-0.038;2023-09-30T09:13:52;16.40;99.90
46231;DHT22;31949;51.404;-0.038;2023-09-30T09:16:24;16.50;99.90
46231;DHT22;31949;51.404;-0.038;2023-09-30T09:18:51;16.50;99.90
46231;DHT22;31949;51.404;-0.038;2023-09-30T09:21:21;16.50;99.90
46231;DHT22;31949;51.404;-0.038;2023-09-30T09:23:50;16.60;99.90
46231;DHT22;31949;51.404;-0.038;2023-09-30T09:26:30;16.80;99.90
46231;DHT22;31949;51.404;-0.038;2023-09-30T09:28:59;16.90;99.90
46231;DHT22;31949;51.404;-0.038;2023-09-30T09:31:28;16.90;99.90
46231;DHT22;31949;51.404;-0.038;2023-09-30T09:33:57;17.00;99.90
46231;DHT22;31949;51.404;-0.038;2023-09-30T09:36:40;17.10;99.90
46231;DHT22;31949;51.404;-0.038;2023-09-30T09:39:11;17.10;99.90
46231;DHT22;31949;51.404;-0.038;2023-09-30T09:41:53;17.30;99.90
46231;DHT22;31949;51.404;-0.038;2023-09-30T09:44:22;17.40;99.90
46231;DHT22;31949;51.404;-0.038;2023-09-30T09:46:57;17.40;99.90
46231;DHT22;31949;51.404;-0.038;2023-09-30T09:49:25;17.40;99.90
46231;DHT22;31949;51.404;-0.038;2023-09-30T09:51:53;17.40;99.90
46231;DHT22;31949;51.404;-0.038;2023-09-30T09:54:22;17.50;99.90
46231;DHT22;31949;51.404;-0.038;2023-09-30T09:56:53;17.60;99.90
46231;DHT22;31949;51.404;-0.038;2023-09-30T09:59:24;17.60;99.90
46231;DHT22;31949;51.404;-0.038;2023-09-30T10:01:52;17.80;99.90
46231;DHT22;31949;51.404;-0.038;2023-09-30T10:04:20;17.90;99.90
46231;DHT22;31949;51.404;-0.038;2023-09-30T10:06:51;18.00;99.90
46231;DHT22;31949;51.404;-0.038;2023-09-30T10:09:20;18.10;99.90
46231;DHT22;31949;51.404;-0.038;2023-09-30T10:11:49;18.10;99.90
46231;DHT22;31949;51.404;-0.038;2023-09-30T10:14:46;18.00;99.90
46231;DHT22;31949;51.404;-0.038;2023-09-30T10:17:13;17.90;99.90
46231;DHT22;31949;51.404;-0.038;2023-09-30T10:20:03;17.90;99.90
46231;DHT22;31949;51.404;-0.038;2023-09-30T10:22:32;18.00;99.90
46231;DHT22;31949;51.404;-0.038;2023-09-30T10:25:00;18.20;99.90
46231;DHT22;31949;51.404;-0.038;2023-09-30T10:27:28;18.30;99.90
46231;DHT22;31949;51.404;-0.038;2023-09-30T10:30:06;18.40;99.90
46231;DHT22;31949;51.404;-0.038;2023-09-30T10:40:58;18.70;99.90
46231;DHT22;31949;51.404;-0.038;2023-09-30T10:43:29;18.80;99.90
46231;DHT22;31949;51.404;-0.038;2023-09-30T10:45:58;18.80;99.90
46231;DHT22;31949;51.404;-0.038;2023-09-30T10:50:55;18.80;99.90
46231;DHT22;31949;51.404;-0.038;2023-09-30T10:53:23;18.90;99.90
46231;DHT22;31949;51.404;-0.038;2023-09-30T10:56:00;19.00;99.90
46231;DHT22;31949;51.404;-0.038;2023-09-30T10:58:50;19.00;99.90
46231;DHT22;31949;51.404;-0.038;2023-09-30T11:01:21;19.00;99.90
46231;DHT22;31949;51.404;-0.038;2023-09-30T11:03:50;19.00;99.90
46231;DHT22;31949;51.404;-0.038;2023-09-30T11:06:19;19.10;99.90
46231;DHT22;31949;51.404;-0.038;2023-09-30T11:08:54;19.20;99.90
46231;DHT22;31949;51.404;-0.038;2023-09-30T11:11:37;19.10;99.90
46231;DHT22;31949;51.404;-0.038;2023-09-30T11:14:20;19.10;99.90
46231;DHT22;31949;51.404;-0.038;2023-09-30T11:16:49;19.20;99.90
46231;DHT22;31949;51.404;-0.038;2023-09-30T11:19:17;19.30;99.90
46231;DHT22;31949;51.404;-0.038;2023-09-30T11:21:45;19.30;99.90
46231;DHT22;31949;51.404;-0.038;2023-09-30T11:24:14;19.30;99.90
46231;DHT22;31949;51.404;-0.038;2023-09-30T11:26:41;19.30;99.90
46231;DHT22;31949;51.404;-0.038;2023-09-30T11:29:13;19.30;99.90
46231;DHT22;31949;51.404;-0.038;2023-09-30T11:31:41;19.30;99.90
46231;DHT22;31949;51.404;-0.038;2023-09-30T11:34:10;19.30;99.90
46231;DHT22;31949;51.404;-0.038;2023-09-30T11:36:40;19.30;99.90
46231;DHT22;31949;51.404;-0.038;2023-09-30T11:39:30;19.40;99.90
46231;DHT22;31949;51.404;-0.038;2023-09-30T11:41:58;19.50;99.90
46231;DHT22;31949;51.404;-0.038;2023-09-30T11:44:25;19.50;99.90
46231;DHT22;31949;51.404;-0.038;2023-09-30T11:46:59;19.00;99.90
46231;DHT22;31949;51.404;-0.038;2023-09-30T11:49:40;18.90;99.90
46231;DHT22;31949;51.404;-0.038;2023-09-30T11:52:09;18.90;99.90
46231;DHT22;31949;51.404;-0.038;2023-09-30T11:54:41;19.00;99.90
46231;DHT22;31949;51.404;-0.038;2023-09-30T11:57:17;19.00;99.90
46231;DHT22;31949;51.404;-0.038;2023-09-30T11:59:46;19.20;99.90
46231;DHT22;31949;51.404;-0.038;2023-09-30T12:02:14;19.30;99.90
46231;DHT22;31949;51.404;-0.038;2023-09-30T12:04:46;19.40;99.90
46231;DHT22;31949;51.404;-0.038;2023-09-30T12:07:16;19.30;99.90
46231;DHT22;31949;51.404;-0.038;2023-09-30T12:09:44;19.30;99.90
46231;DHT22;31949;51.404;-0.038;2023-09-30T12:12:14;19.40;99.90
46231;DHT22;31949;51.404;-0.038;2023-09-30T12:14:43;19.50;99.90
46231;DHT22;31949;51.404;-0.038;2023-09-30T12:17:11;19.40;99.90
46231;DHT22;31949;51.404;-0.038;2023-09-30T12:19:41;19.40;99.90
46231;DHT22;31949;51.404;-0.038;2023-09-30T12:22:10;19.50;99.90
46231;DHT22;31949;51.404;-0.038;2023-09-30T12:24:38;19.60;99.90
46231;DHT22;31949;51.404;-0.038;2023-09-30T12:27:07;19.70;99.90
46231;DHT22;31949;51.404;-0.038;2023-09-30T12:29:34;19.80;99.90
46231;DHT22;31949;51.404;-0.038;2023-09-30T12:32:01;19.80;99.90
46231;DHT22;31949;51.404;-0.038;2023-09-30T12:34:28;19.90;99.90
46231;DHT22;31949;51.404;-0.038;2023-09-30T12:36:56;20.00;99.90
46231;DHT22;31949;51.404;-0.038;2023-09-30T12:39:24;20.10;99.90
46231;DHT22;31949;51.404;-0.038;2023-09-30T12:41:54;20.20;99.90
46231;DHT22;31949;51.404;-0.038;2023-09-30T12:44:21;20.30;99.90
46231;DHT22;31949;51.404;-0.038;2023-09-30T12:46:50;20.10;99.90
46231;DHT22;31949;51.404;-0.038;2023-09-30T12:49:18;20.20;99.90
46231;DHT22;31949;51.404;-0.038;2023-09-30T12:51:46;20.20;99.90
46231;DHT22;31949;51.404;-0.038;2023-09-30T12:54:13;20.40;99.90
46231;DHT22;31949;51.404;-0.038;2023-09-30T12:56:42;20.30;99.90
46231;DHT22;31949;51.404;-0.038;2023-09-30T12:59:09;20.20;99.90
46231;DHT22;31949;51.404;-0.038;2023-09-30T13:01:36;20.20;99.90
46231;DHT22;31949;51.404;-0.038;2023-09-30T13:04:04;20.00;99.90
46231;DHT22;31949;51.404;-0.038;2023-09-30T13:06:35;20.00;99.90
46231;DHT22;31949;51.404;-0.038;2023-09-30T13:09:03;19.90;99.90
46231;DHT22;31949;51.404;-0.038;2023-09-30T13:11:36;20.00;99.90
46231;DHT22;31949;51.404;-0.038;2023-09-30T13:14:04;20.20;99.90
46231;DHT22;31949;51.404;-0.038;2023-09-30T13:16:31;20.30;99.90
46231;DHT22;31949;51.404;-0.038;2023-09-30T13:18:59;20.40;99.90
46231;DHT22;31949;51.404;-0.038;2023-09-30T13:21:27;20.30;99.90
46231;DHT22;31949;51.404;-0.038;2023-09-30T13:23:54;20.30;99.90
46231;DHT22;31949;51.404;-0.038;2023-09-30T13:26:22;20.30;99.90
46231;DHT22;31949;51.404;-0.038;2023-09-30T13:28:49;20.40;99.90
46231;DHT22;31949;51.404;-0.038;2023-09-30T13:31:16;20.40;99.90
46231;DHT22;31949;51.404;-0.038;2023-09-30T13:33:44;20.40;99.90
46231;DHT22;31949;51.404;-0.038;2023-09-30T13:36:11;20.50;99.90
46231;DHT22;31949;51.404;-0.038;2023-09-30T13:38:38;20.50;99.90
46231;DHT22;31949;51.404;-0.038;2023-09-30T13:41:06;20.50;99.90
46231;DHT22;31949;51.404;-0.038;2023-09-30T13:43:33;20.50;99.90
46231;DHT22;31949;51.404;-0.038;2023-09-30T13:46:04;20.50;99.90
46231;DHT22;31949;51.404;-0.038;2023-09-30T13:48:34;20.50;99.90
46231;DHT22;31949;51.404;-0.038;2023-09-30T13:51:09;20.50;99.90
46231;DHT22;31949;51.404;-0.038;2023-09-30T13:53:36;20.60;99.90
46231;DHT22;31949;51.404;-0.038;2023-09-30T13:56:07;20.50;99.90
46231;DHT22;31949;51.404;-0.038;2023-09-30T13:58:34;20.60;99.90
46231;DHT22;31949;51.404;-0.038;2023-09-30T14:01:02;20.40;99.90
46231;DHT22;31949;51.404;-0.038;2023-09-30T14:03:29;20.50;99.90
46231;DHT22;31949;51.404;-0.038;2023-09-30T14:05:57;20.40;99.90
46231;DHT22;31949;51.404;-0.038;2023-09-30T14:08:24;20.40;99.90
46231;DHT22;31949;51.404;-0.038;2023-09-30T14:10:52;20.30;99.90
46231;DHT22;31949;51.404;-0.038;2023-09-30T14:13:19;20.40;99.90
46231;DHT22;31949;51.404;-0.038;2023-09-30T14:15:46;20.20;99.90
46231;DHT22;31949;51.404;-0.038;2023-09-30T14:18:14;20.30;99.90
46231;DHT22;31949;51.404;-0.038;2023-09-30T14:20:42;20.40;99.90
46231;DHT22;31949;51.404;-0.038;2023-09-30T14:23:10;20.30;99.90
46231;DHT22;31949;51.404;-0.038;2023-09-30T14:25:37;20.40;99.90
46231;DHT22;31949;51.404;-0.038;2023-09-30T14:28:05;20.40;99.90
46231;DHT22;31949;51.404;-0.038;2023-09-30T14:30:33;20.40;99.90
46231;DHT22;31949;51.404;-0.038;2023-09-30T14:33:00;20.30;99.90
46231;DHT22;31949;51.404;-0.038;2023-09-30T14:35:28;20.30;99.90
46231;DHT22;31949;51.404;-0.038;2023-09-30T14:37:55;20.30;99.90
46231;DHT22;31949;51.404;-0.038;2023-09-30T14:40:24;20.30;99.90
46231;DHT22;31949;51.404;-0.038;2023-09-30T14:42:51;20.30;99.90
46231;DHT22;31949;51.404;-0.038;2023-09-30T14:45:18;20.40;99.90
46231;DHT22;31949;51.404;-0.038;2023-09-30T14:47:49;20.40;99.90
46231;DHT22;31949;51.404;-0.038;2023-09-30T14:50:16;20.50;99.90
46231;DHT22;31949;51.404;-0.038;2023-09-30T14:52:44;20.50;99.90
46231;DHT22;31949;51.404;-0.038;2023-09-30T14:55:11;20.50;99.90
46231;DHT22;31949;51.404;-0.038;2023-09-30T14:57:39;20.40;99.90
46231;DHT22;31949;51.404;-0.038;2023-09-30T15:00:07;20.30;99.90
46231;DHT22;31949;51.404;-0.038;2023-09-30T15:02:35;20.30;99.90
46231;DHT22;31949;51.404;-0.038;2023-09-30T15:05:04;20.30;99.90
46231;DHT22;31949;51.404;-0.038;2023-09-30T15:07:31;20.30;99.90
46231;DHT22;31949;51.404;-0.038;2023-09-30T15:09:58;20.20;99.90
46231;DHT22;31949;51.404;-0.038;2023-09-30T15:12:26;20.30;99.90
46231;DHT22;31949;51.404;-0.038;2023-09-30T15:14:54;20.30;99.90
46231;DHT22;31949;51.404;-0.038;2023-09-30T15:17:23;20.30;99.90
46231;DHT22;31949;51.404;-0.038;2023-09-30T15:19:51;20.20;99.90
46231;DHT22;31949;51.404;-0.038;2023-09-30T15:22:18;20.20;99.90
46231;DHT22;31949;51.404;-0.038;2023-09-30T15:24:46;20.30;99.90
46231;DHT22;31949;51.404;-0.038;2023-09-30T15:27:13;20.20;99.90
46231;DHT22;31949;51.404;-0.038;2023-09-30T15:29:41;20.20;99.90
46231;DHT22;31949;51.404;-0.038;2023-09-30T15:32:09;20.20;99.90
46231;DHT22;31949;51.404;-0.038;2023-09-30T15:34:36;20.00;99.90
46231;DHT22;31949;51.404;-0.038;2023-09-30T15:37:07;20.00;99.90
46231;DHT22;31949;51.404;-0.038;2023-09-30T15:39:41;19.90;99.90